createdAt,value
2018-07-22T00:00:29.178Z,20.21
2018-07-22T00:01:41.371Z,20.16
2018-07-22T00:02:42.507Z,20.15
2018-07-22T00:03:47.835Z,20.16
2018-07-22T00:04:57.160Z,20.09
2018-07-22T00:05:57.679Z,20.10
2018-07-22T00:07:01.782Z,20.09
2018-07-22T00:08:07.215Z,19.98
2018-07-22T00:09:15.416Z,20.02
2018-07-22T00:10:26.895Z,19.93
2018-07-22T00:11:31.097Z,20.02
2018-07-22T00:12:31.719Z,20.06
2018-07-22T00:13:39.508Z,19.98
2018-07-22T00:14:51.217Z,20.00
2018-07-22T00:15:45.933Z,20.05
2018-07-22T00:16:59.188Z,19.95
2018-07-22T00:18:00.468Z,20.03
2018-07-22T00:19:02.175Z,19.97
2018-07-22T00:21:14.686Z,19.98
2018-07-22T00:22:24.003Z,19.94
2018-07-22T00:23:27.287Z,19.91
2018-07-22T00:24:32.822Z,19.94
2018-07-22T00:25:40.518Z,19.91
2018-07-22T00:27:50.047Z,19.88
2018-07-22T00:29:00.907Z,19.88
2018-07-22T00:31:11.469Z,19.87
2018-07-22T00:32:13.217Z,19.80
2018-07-22T00:33:18.655Z,19.78
2018-07-22T00:34:27.567Z,19.90
2018-07-22T00:35:36.789Z,19.91
2018-07-22T00:36:35.772Z,19.83
2018-07-22T00:38:46.947Z,19.78
2018-07-22T00:40:57.098Z,19.83
2018-07-22T00:42:03.052Z,19.80
2018-07-22T00:43:11.037Z,19.73
2018-07-22T00:44:14.536Z,19.73
2018-07-22T00:45:16.274Z,19.86
2018-07-22T00:47:26.631Z,19.76
2018-07-22T00:48:33.294Z,19.69
2018-07-22T00:49:41.669Z,19.66
2018-07-22T00:50:38.332Z,19.65
2018-07-22T00:51:49.708Z,19.69
2018-07-22T00:54:05.070Z,19.69
2018-07-22T00:57:19.020Z,19.66
2018-07-22T00:58:31.928Z,19.63
2018-07-22T00:59:32.659Z,19.63
2018-07-22T01:00:31.965Z,19.60
2018-07-22T01:01:33.483Z,19.60
2018-07-22T01:03:56.334Z,19.61
2018-07-22T01:04:55.668Z,19.60
2018-07-22T01:06:02.188Z,19.55
2018-07-22T01:08:15.243Z,19.50
2018-07-22T01:09:21.251Z,19.42
2018-07-22T01:10:26.274Z,19.51
2018-07-22T01:11:28.851Z,19.51
2018-07-22T01:12:32.127Z,19.48
2018-07-22T01:13:41.042Z,19.51
2018-07-22T01:14:47.705Z,19.46
2018-07-22T01:15:57.028Z,19.51
2018-07-22T01:16:57.854Z,19.51
2018-07-22T01:18:04.838Z,19.50
2018-07-22T01:19:03.706Z,19.51
2018-07-22T01:20:14.976Z,19.50
2018-07-22T01:21:26.963Z,19.48
2018-07-22T01:22:27.483Z,19.50
2018-07-22T01:23:34.864Z,19.47
2018-07-22T01:24:37.690Z,19.43
2018-07-22T01:25:54.026Z,19.43
2018-07-22T01:26:45.020Z,19.38
2018-07-22T01:27:57.418Z,19.48
2018-07-22T01:30:05.319Z,19.39
2018-07-22T01:31:14.231Z,19.36
2018-07-22T01:32:25.401Z,19.35
2018-07-22T01:33:27.866Z,19.32
2018-07-22T01:34:19.673Z,19.40
2018-07-22T01:35:34.738Z,19.36
2018-07-22T01:36:44.371Z,19.42
2018-07-22T01:37:44.676Z,19.33
2018-07-22T01:38:57.389Z,19.36
2018-07-22T01:39:56.074Z,19.35
2018-07-22T01:41:02.216Z,19.31
2018-07-22T01:42:06.625Z,19.35
2018-07-22T01:43:09.209Z,19.28
2018-07-22T01:44:20.361Z,19.28
2018-07-22T01:45:17.400Z,19.25
2018-07-22T01:46:25.904Z,19.38
2018-07-22T01:48:36.262Z,19.33
2018-07-22T01:49:48.350Z,19.38
2018-07-22T01:50:47.537Z,19.40
2018-07-22T01:52:05.876Z,19.31
2018-07-22T01:52:56.259Z,19.33
2018-07-22T01:54:10.187Z,19.39
2018-07-22T01:56:23.269Z,19.36
2018-07-22T01:57:24.653Z,19.29
2018-07-22T01:58:37.251Z,19.31
2018-07-22T01:59:33.877Z,19.28
2018-07-22T02:00:34.244Z,19.31
2018-07-22T02:01:46.088Z,19.31
2018-07-22T02:02:47.619Z,19.28
2018-07-22T02:03:58.890Z,19.33
2018-07-22T02:05:02.483Z,19.35
2018-07-22T02:07:18.573Z,19.32
2018-07-22T02:08:16.542Z,19.33
2018-07-22T02:09:16.846Z,19.24
2018-07-22T02:10:36.922Z,19.32
2018-07-22T02:11:28.942Z,19.29
2018-07-22T02:12:45.127Z,19.33
2018-07-22T02:13:49.802Z,19.31
2018-07-22T02:14:54.971Z,19.38
2018-07-22T02:15:52.930Z,19.25
2018-07-22T02:17:01.232Z,19.29
2018-07-22T02:18:11.990Z,19.32
2018-07-22T02:19:07.687Z,19.25
2018-07-22T02:20:15.281Z,19.17
2018-07-22T02:21:26.653Z,19.25
2018-07-22T02:22:32.087Z,19.23
2018-07-22T02:24:38.757Z,19.24
2018-07-22T02:25:51.741Z,19.17
2018-07-22T02:26:58.124Z,19.23
2018-07-22T02:27:58.234Z,19.28
2018-07-22T02:29:04.692Z,19.29
2018-07-22T02:30:05.416Z,19.21
2018-07-22T02:31:14.692Z,19.15
2018-07-22T02:32:21.407Z,19.15
2018-07-22T02:35:31.972Z,19.15
2018-07-22T02:36:52.150Z,19.14
2018-07-22T02:38:56.260Z,19.24
2018-07-22T02:40:06.694Z,19.17
2018-07-22T02:41:09.588Z,19.18
2018-07-22T02:42:01.606Z,19.15
2018-07-22T02:43:15.949Z,19.15
2018-07-22T02:44:15.696Z,19.17
2018-07-22T02:45:24.461Z,19.18
2018-07-22T02:47:34.305Z,19.14
2018-07-22T02:49:44.559Z,19.14
2018-07-22T02:50:52.600Z,19.14
2018-07-22T02:52:07.613Z,19.15
2018-07-22T02:52:54.324Z,19.15
2018-07-22T02:54:10.217Z,19.01
2018-07-22T02:55:09.272Z,19.06
2018-07-22T02:56:19.109Z,19.08
2018-07-22T02:57:23.804Z,19.13
2018-07-22T02:58:35.611Z,19.10
2018-07-22T02:59:33.465Z,19.08
2018-07-22T03:00:42.922Z,19.10
2018-07-22T03:01:51.810Z,19.08
2018-07-22T03:02:52.942Z,19.05
2018-07-22T03:03:57.146Z,19.02
2018-07-22T03:05:09.655Z,18.99
2018-07-22T03:06:04.123Z,19.02
2018-07-22T03:07:09.557Z,19.08
2018-07-22T03:08:12.639Z,19.08
2018-07-22T03:09:28.719Z,19.02
2018-07-22T03:10:43.325Z,19.01
2018-07-22T03:11:37.442Z,19.06
2018-07-22T03:12:53.011Z,19.08
2018-07-22T03:13:52.613Z,19.11
2018-07-22T03:14:54.968Z,19.08
2018-07-22T03:17:05.120Z,19.02
2018-07-22T03:18:10.144Z,19.05
2018-07-22T03:19:18.958Z,19.02
2018-07-22T03:20:23.162Z,19.06
2018-07-22T03:22:34.031Z,18.95
2018-07-22T03:23:33.220Z,19.05
2018-07-22T03:24:43.876Z,18.99
2018-07-22T03:25:55.263Z,18.97
2018-07-22T03:26:58.021Z,18.95
2018-07-22T03:28:09.095Z,18.97
2018-07-22T03:29:10.326Z,18.94
2018-07-22T03:30:12.889Z,18.95
2018-07-22T03:31:16.322Z,18.92
2018-07-22T03:32:25.316Z,18.95
2018-07-22T03:33:31.649Z,18.92
2018-07-22T03:34:34.010Z,18.99
2018-07-22T03:35:46.511Z,18.92
2018-07-22T03:36:56.248Z,18.91
2018-07-22T03:37:57.380Z,18.90
2018-07-22T03:38:52.061Z,18.92
2018-07-22T03:39:59.337Z,19.01
2018-07-22T03:41:13.476Z,18.99
2018-07-22T03:42:12.357Z,19.02
2018-07-22T03:43:19.940Z,18.99
2018-07-22T03:44:35.718Z,18.99
2018-07-22T03:45:32.214Z,18.91
2018-07-22T03:46:27.311Z,18.95
2018-07-22T03:48:49.568Z,19.05
2018-07-22T03:50:53.689Z,19.02
2018-07-22T03:51:58.910Z,19.05
2018-07-22T03:53:13.662Z,19.08
2018-07-22T03:54:10.217Z,19.06
2018-07-22T03:55:14.697Z,19.02
2018-07-22T03:56:35.490Z,19.11
2018-07-22T03:57:23.828Z,19.10
2018-07-22T03:58:43.901Z,19.08
2018-07-22T03:59:45.452Z,19.11
2018-07-22T04:01:57.335Z,19.11
2018-07-22T04:04:01.139Z,19.02
2018-07-22T04:05:03.091Z,18.98
2018-07-22T04:06:14.772Z,19.01
2018-07-22T04:07:29.335Z,18.98
2018-07-22T04:08:31.724Z,18.91
2018-07-22T04:09:29.970Z,18.92
2018-07-22T04:10:34.767Z,18.94
2018-07-22T04:11:46.141Z,18.90
2018-07-22T04:12:45.941Z,18.90
2018-07-22T04:13:57.729Z,18.95
2018-07-22T04:16:07.727Z,18.91
2018-07-22T04:17:07.372Z,18.91
2018-07-22T04:20:25.825Z,18.92
2018-07-22T04:21:26.607Z,18.94
2018-07-22T04:22:32.288Z,18.95
2018-07-22T04:23:50.728Z,18.99
2018-07-22T04:25:51.738Z,18.98
2018-07-22T04:26:52.898Z,18.95
2018-07-22T04:28:23.114Z,18.87
2018-07-22T04:29:25.476Z,18.97
2018-07-22T04:31:23.550Z,18.95
2018-07-22T04:32:36.863Z,18.98
2018-07-22T04:33:31.441Z,18.91
2018-07-22T04:34:41.792Z,18.99
2018-07-22T04:35:49.172Z,19.02
2018-07-22T04:36:53.069Z,19.06
2018-07-22T04:37:52.665Z,19.01
2018-07-22T04:39:06.733Z,19.01
2018-07-22T04:40:04.557Z,19.10
2018-07-22T04:41:10.605Z,19.10
2018-07-22T04:43:25.161Z,19.08
2018-07-22T04:44:28.353Z,19.14
2018-07-22T04:45:32.861Z,19.10
2018-07-22T04:46:36.751Z,19.06
2018-07-22T04:47:48.228Z,19.11
2018-07-22T04:48:42.098Z,19.15
2018-07-22T04:51:06.357Z,19.14
2018-07-22T04:52:06.736Z,19.15
2018-07-22T04:53:02.600Z,19.14
2018-07-22T04:54:14.892Z,19.11
2018-07-22T04:55:23.296Z,19.14
2018-07-22T04:56:26.784Z,19.13
2018-07-22T04:58:38.741Z,19.20
2018-07-22T05:02:02.658Z,19.25
2018-07-22T05:02:59.739Z,19.25
2018-07-22T05:04:17.725Z,19.25
2018-07-22T05:05:10.666Z,19.28
2018-07-22T05:06:21.630Z,19.28
2018-07-22T05:07:17.336Z,19.31
2018-07-22T05:08:38.540Z,19.36
2018-07-22T05:09:41.721Z,19.36
2018-07-22T05:10:35.174Z,19.39
2018-07-22T05:11:48.605Z,19.42
2018-07-22T05:12:49.216Z,19.43
2018-07-22T05:13:58.235Z,19.36
2018-07-22T05:15:02.743Z,19.42
2018-07-22T05:17:14.435Z,19.46
2018-07-22T05:19:18.646Z,19.46
2018-07-22T05:20:43.872Z,19.51
2018-07-22T05:21:34.326Z,19.43
2018-07-22T05:22:38.746Z,19.48
2018-07-22T05:23:43.353Z,19.60
2018-07-22T05:24:51.087Z,19.50
2018-07-22T05:25:51.148Z,19.58
2018-07-22T05:27:04.979Z,19.60
2018-07-22T05:28:07.443Z,19.60
2018-07-22T05:29:09.751Z,19.58
2018-07-22T05:32:34.711Z,19.70
2018-07-22T05:33:35.227Z,19.66
2018-07-22T05:34:40.756Z,19.68
2018-07-22T05:35:49.578Z,19.75
2018-07-22T05:36:53.751Z,19.73
2018-07-22T05:38:05.380Z,19.76
2018-07-22T05:39:01.580Z,19.78
2018-07-22T05:40:10.391Z,19.84
2018-07-22T05:41:17.668Z,19.79
2018-07-22T05:42:25.152Z,19.90
2018-07-22T05:43:29.255Z,19.79
2018-07-22T05:45:32.595Z,19.79
2018-07-22T05:46:40.648Z,19.87
2018-07-22T05:47:43.514Z,19.84
2018-07-22T05:48:53.658Z,19.88
2018-07-22T05:49:54.485Z,19.97
2018-07-22T05:50:56.138Z,19.98
2018-07-22T05:52:05.864Z,19.95
2018-07-22T05:53:12.630Z,19.93
2018-07-22T05:54:23.081Z,20.00
2018-07-22T05:57:39.487Z,20.12
2018-07-22T05:58:42.055Z,20.09
2018-07-22T06:00:00.799Z,20.09
2018-07-22T06:00:56.403Z,20.10
2018-07-22T06:03:03.224Z,20.12
2018-07-22T06:04:11.271Z,20.20
2018-07-22T06:05:13.225Z,20.08
2018-07-22T06:07:37.100Z,20.09
2018-07-22T06:08:34.031Z,20.18
2018-07-22T06:09:36.760Z,20.21
2018-07-22T06:10:41.625Z,20.28
2018-07-22T06:11:51.295Z,20.27
2018-07-22T06:13:02.935Z,20.28
2018-07-22T06:14:01.202Z,20.21
2018-07-22T06:15:10.762Z,20.31
2018-07-22T06:16:11.967Z,20.30
2018-07-22T06:17:13.714Z,20.21
2018-07-22T06:18:28.065Z,20.33
2018-07-22T06:21:40.365Z,20.34
2018-07-22T06:22:32.794Z,20.39
2018-07-22T06:23:54.818Z,20.42
2018-07-22T06:24:48.988Z,20.41
2018-07-22T06:26:00.765Z,20.42
2018-07-22T06:27:03.764Z,20.35
2018-07-22T06:28:00.886Z,20.47
2018-07-22T06:29:25.982Z,20.42
2018-07-22T06:30:22.819Z,20.53
2018-07-22T06:32:28.706Z,20.53
2018-07-22T06:34:45.268Z,20.58
2018-07-22T06:35:51.733Z,20.50
2018-07-22T06:36:54.412Z,20.51
2018-07-22T06:37:57.270Z,20.50
2018-07-22T06:39:08.345Z,20.58
2018-07-22T06:40:11.208Z,20.64
2018-07-22T06:41:18.998Z,20.61
2018-07-22T06:42:20.642Z,20.61
2018-07-22T06:43:30.890Z,20.59
2018-07-22T06:45:32.646Z,20.62
2018-07-22T06:47:45.913Z,20.65
2018-07-22T06:50:04.416Z,20.68
2018-07-22T06:52:12.930Z,20.64
2018-07-22T06:55:28.034Z,20.74
2018-07-22T06:56:38.454Z,20.72
2018-07-22T06:57:39.697Z,20.74
2018-07-22T06:58:54.225Z,20.74
2018-07-22T06:59:57.829Z,20.79
2018-07-22T07:00:54.374Z,20.77
2018-07-22T07:02:01.937Z,20.81
2018-07-22T07:03:16.689Z,20.90
2018-07-22T07:04:10.759Z,20.91
2018-07-22T07:05:33.424Z,20.90
2018-07-22T07:06:18.758Z,20.91
2018-07-22T07:07:34.229Z,20.87
2018-07-22T07:08:32.917Z,20.93
2018-07-22T07:09:40.794Z,20.90
2018-07-22T07:10:39.779Z,21.06
2018-07-22T07:11:48.169Z,20.99
2018-07-22T07:12:52.780Z,21.05
2018-07-22T07:13:58.745Z,21.05
2018-07-22T07:15:12.779Z,21.02
2018-07-22T07:16:17.195Z,21.11
2018-07-22T07:17:28.933Z,21.16
2018-07-22T07:18:32.357Z,21.13
2018-07-22T07:19:29.190Z,21.16
2018-07-22T07:20:38.718Z,21.17
2018-07-22T07:21:45.183Z,21.14
2018-07-22T07:22:54.502Z,21.17
2018-07-22T07:23:55.943Z,21.20
2018-07-22T07:25:03.324Z,21.24
2018-07-22T07:26:01.997Z,21.29
2018-07-22T07:27:01.947Z,21.35
2018-07-22T07:28:13.435Z,21.30
2018-07-22T07:29:23.635Z,21.35
2018-07-22T07:30:22.788Z,21.36
2018-07-22T07:31:27.325Z,21.35
2018-07-22T07:32:33.682Z,21.30
2018-07-22T07:34:49.879Z,21.34
2018-07-22T07:37:04.841Z,21.50
2018-07-22T07:38:16.418Z,21.38
2018-07-22T07:39:09.868Z,21.45
2018-07-22T07:40:14.789Z,21.51
2018-07-22T07:41:16.744Z,21.51
2018-07-22T07:42:24.589Z,21.44
2018-07-22T07:43:26.792Z,21.53
2018-07-22T07:44:33.790Z,21.54
2018-07-22T07:45:48.411Z,21.63
2018-07-22T07:46:45.559Z,21.53
2018-07-22T07:47:57.235Z,21.67
2018-07-22T07:50:13.632Z,21.72
2018-07-22T07:54:23.385Z,21.88
2018-07-22T07:55:35.484Z,21.83
2018-07-22T07:56:37.223Z,21.90
2018-07-22T07:58:52.495Z,21.95
2018-07-22T07:59:59.566Z,21.85
2018-07-22T08:02:08.490Z,22.04
2018-07-22T08:03:24.676Z,22.06
2018-07-22T08:04:25.299Z,22.09
2018-07-22T08:05:33.965Z,22.02
2018-07-22T08:06:26.845Z,22.09
2018-07-22T08:07:42.807Z,22.10
2018-07-22T08:09:45.094Z,22.23
2018-07-22T08:10:50.528Z,22.20
2018-07-22T08:14:17.996Z,22.41
2018-07-22T08:16:27.538Z,22.41
2018-07-22T08:17:28.148Z,22.37
2018-07-22T08:18:32.153Z,22.50
2018-07-22T08:19:38.198Z,22.47
2018-07-22T08:20:49.879Z,22.53
2018-07-22T08:21:40.861Z,22.47
2018-07-22T08:22:54.808Z,22.52
2018-07-22T08:24:05.875Z,22.65
2018-07-22T08:26:06.447Z,22.68
2018-07-22T08:27:26.477Z,22.67
2018-07-22T08:28:32.422Z,22.71
2018-07-22T08:29:28.639Z,22.69
2018-07-22T08:30:43.496Z,22.72
2018-07-22T08:31:39.807Z,22.80
2018-07-22T08:32:54.774Z,22.75
2018-07-22T08:33:42.184Z,22.80
2018-07-22T08:34:54.806Z,22.86
2018-07-22T08:35:45.379Z,22.86
2018-07-22T08:37:13.028Z,22.90
2018-07-22T08:38:21.330Z,22.87
2018-07-22T08:40:27.793Z,22.96
2018-07-22T08:41:40.475Z,22.97
2018-07-22T08:42:29.855Z,23.04
2018-07-22T08:43:40.810Z,23.08
2018-07-22T08:44:51.578Z,23.07
2018-07-22T08:45:56.749Z,23.14
2018-07-22T08:47:01.934Z,23.23
2018-07-22T08:48:09.007Z,23.23
2018-07-22T08:49:09.117Z,23.23
2018-07-22T08:51:31.666Z,23.43
2018-07-22T08:52:52.450Z,23.42
2018-07-22T08:53:38.532Z,23.43
2018-07-22T08:54:43.055Z,23.45
2018-07-22T08:55:31.480Z,23.52
2018-07-22T08:57:14.502Z,23.55
2018-07-22T08:58:25.460Z,23.60
2018-07-22T09:00:15.436Z,23.65
2018-07-22T09:01:57.020Z,23.67
2018-07-22T09:02:30.825Z,23.75
2018-07-22T09:04:17.003Z,23.76
2018-07-22T09:05:56.128Z,23.80
2018-07-22T09:07:30.232Z,23.86
2018-07-22T09:08:49.695Z,23.95
2018-07-22T09:11:02.301Z,23.92
2018-07-22T09:12:09.690Z,24.10
2018-07-22T09:13:10.611Z,24.04
2018-07-22T09:13:49.419Z,24.08
2018-07-22T09:14:54.445Z,24.10
2018-07-22T09:16:12.501Z,24.19
2018-07-22T09:17:07.494Z,24.27
2018-07-22T09:19:31.748Z,24.37
2018-07-22T09:20:19.496Z,24.39
2018-07-22T09:21:31.967Z,24.44
2018-07-22T09:22:30.845Z,24.47
2018-07-22T09:23:29.822Z,24.56
2018-07-22T09:24:53.079Z,24.45
2018-07-22T09:25:34.248Z,24.49
2018-07-22T09:26:59.242Z,24.63
2018-07-22T09:27:58.221Z,24.53
2018-07-22T09:28:56.281Z,24.54
2018-07-22T09:30:02.234Z,24.56
2018-07-22T09:31:04.589Z,24.63
2018-07-22T09:32:14.428Z,24.61
2018-07-22T09:34:33.593Z,24.76
2018-07-22T09:35:28.782Z,24.80
2018-07-22T09:36:46.710Z,24.88
2018-07-22T09:37:34.940Z,24.85
2018-07-22T09:38:37.107Z,24.87
2018-07-22T09:39:43.146Z,24.87
2018-07-22T09:41:00.152Z,24.88
2018-07-22T09:42:10.092Z,24.90
2018-07-22T09:43:00.369Z,25.01
2018-07-22T09:44:11.435Z,25.07
2018-07-22T09:45:11.544Z,25.17
2018-07-22T09:46:21.484Z,25.19
2018-07-22T09:47:25.594Z,25.25
2018-07-22T09:49:40.658Z,25.34
2018-07-22T09:50:40.872Z,25.39
2018-07-22T09:51:51.513Z,25.38
2018-07-22T09:53:03.514Z,25.37
2018-07-22T09:54:01.981Z,25.34
2018-07-22T09:55:12.126Z,25.43
2018-07-22T09:56:27.082Z,25.52
2018-07-22T09:57:17.873Z,25.54
2018-07-22T09:58:33.147Z,25.57
2018-07-22T09:59:35.811Z,25.67
2018-07-22T10:00:33.355Z,25.72
2018-07-22T10:01:52.204Z,25.74
2018-07-22T10:02:46.477Z,25.71
2018-07-22T10:03:59.181Z,25.86
2018-07-22T10:04:59.524Z,25.86
2018-07-22T10:06:20.022Z,25.90
2018-07-22T10:07:11.592Z,25.93
2018-07-22T10:08:13.851Z,26.05
2018-07-22T10:09:22.052Z,26.04
2018-07-22T10:11:36.847Z,26.17
2018-07-22T10:12:46.342Z,26.12
2018-07-22T10:14:50.923Z,26.15
2018-07-22T10:15:56.504Z,26.09
2018-07-22T10:17:05.107Z,26.15
2018-07-22T10:18:08.697Z,26.18
2018-07-22T10:19:02.867Z,26.22
2018-07-22T10:20:04.104Z,26.25
2018-07-22T10:21:30.844Z,26.35
2018-07-22T10:24:32.531Z,26.37
2018-07-22T10:26:47.263Z,26.39
2018-07-22T10:27:59.247Z,26.58
2018-07-22T10:29:58.541Z,26.61
2018-07-22T10:31:09.605Z,26.74
2018-07-22T10:32:24.931Z,26.79
2018-07-22T10:33:21.601Z,26.79
2018-07-22T10:34:15.472Z,26.80
2018-07-22T10:37:44.973Z,26.94
2018-07-22T10:38:42.845Z,27.01
2018-07-22T10:39:42.019Z,26.91
2018-07-22T10:42:05.074Z,27.11
2018-07-22T10:43:15.445Z,27.17
2018-07-22T10:44:19.730Z,27.14
2018-07-22T10:46:25.273Z,27.29
2018-07-22T10:47:30.095Z,27.29
2018-07-22T10:48:42.490Z,27.38
2018-07-22T10:50:46.292Z,27.39
2018-07-22T10:52:10.849Z,27.43
2018-07-22T10:53:08.219Z,27.51
2018-07-22T10:54:15.299Z,27.62
2018-07-22T10:55:31.581Z,27.53
2018-07-22T10:56:21.655Z,27.59
2018-07-22T10:59:50.143Z,27.71
2018-07-22T11:01:37.663Z,27.73
2018-07-22T11:03:58.854Z,27.86
2018-07-22T11:05:01.650Z,27.92
2018-07-22T11:06:10.357Z,27.92
2018-07-22T11:07:23.572Z,27.91
2018-07-22T11:08:24.503Z,27.99
2018-07-22T11:09:27.274Z,28.03
2018-07-22T11:10:35.380Z,28.01
2018-07-22T11:11:30.673Z,28.10
2018-07-22T11:12:43.370Z,28.14
2018-07-22T11:13:40.101Z,28.14
2018-07-22T11:14:48.147Z,28.11
2018-07-22T11:15:52.197Z,28.10
2018-07-22T11:17:00.194Z,28.09
2018-07-22T11:19:06.757Z,28.17
2018-07-22T11:21:26.901Z,28.16
2018-07-22T11:22:25.722Z,28.16
2018-07-22T11:23:27.680Z,28.11
2018-07-22T11:24:42.635Z,28.21
2018-07-22T11:26:45.002Z,28.28
2018-07-22T11:27:57.298Z,28.31
2018-07-22T11:29:04.109Z,28.41
2018-07-22T11:31:13.598Z,28.40
2018-07-22T11:32:14.424Z,28.47
2018-07-22T11:33:28.565Z,28.38
2018-07-22T11:34:27.648Z,28.51
2018-07-22T11:35:34.106Z,28.58
2018-07-22T11:36:39.029Z,28.47
2018-07-22T11:38:02.998Z,28.56
2018-07-22T11:39:00.238Z,28.54
2018-07-22T11:40:01.987Z,28.62
2018-07-22T11:41:16.432Z,28.58
2018-07-22T11:42:17.053Z,28.56
2018-07-22T11:43:29.554Z,28.68
2018-07-22T11:44:32.579Z,28.66
2018-07-22T11:45:24.651Z,28.77
2018-07-22T11:46:38.996Z,28.75
2018-07-22T11:47:40.538Z,28.88
2018-07-22T11:48:44.132Z,28.91
2018-07-22T11:49:50.175Z,28.96
2018-07-22T11:50:52.590Z,28.93
2018-07-22T11:52:09.954Z,28.96
2018-07-22T11:53:02.689Z,29.04
2018-07-22T11:54:10.276Z,29.06
2018-07-22T11:55:09.668Z,29.06
2018-07-22T11:56:17.352Z,29.11
2018-07-22T11:58:32.317Z,29.10
2018-07-22T11:59:32.017Z,29.01
2018-07-22T12:00:44.124Z,29.19
2018-07-22T12:02:47.704Z,29.28
2018-07-22T12:04:03.594Z,29.29
2018-07-22T12:05:02.259Z,29.25
2018-07-22T12:06:05.645Z,29.29
2018-07-22T12:07:11.495Z,29.31
2018-07-22T12:09:26.249Z,29.33
2018-07-22T12:10:26.666Z,29.37
2018-07-22T12:11:43.981Z,29.28
2018-07-22T12:12:48.593Z,29.25
2018-07-22T12:14:52.916Z,29.10
2018-07-22T12:16:06.125Z,28.97
2018-07-22T12:16:59.885Z,29.01
2018-07-22T12:18:09.606Z,29.00
2018-07-22T12:19:13.312Z,29.03
2018-07-22T12:21:32.781Z,29.07
2018-07-22T12:23:40.073Z,29.04
2018-07-22T12:24:44.067Z,28.93
2018-07-22T12:25:46.938Z,29.01
2018-07-22T12:26:56.879Z,29.07
2018-07-22T12:28:00.218Z,28.96
2018-07-22T12:30:08.677Z,28.82
2018-07-22T12:31:15.646Z,28.77
2018-07-22T12:32:22.725Z,28.77
2018-07-22T12:33:33.478Z,28.88
2018-07-22T12:34:38.296Z,28.95
2018-07-22T12:36:45.273Z,29.18
2018-07-22T12:37:46.202Z,29.18
2018-07-22T12:38:57.788Z,29.23
2018-07-22T12:40:05.878Z,29.31
2018-07-22T12:41:05.269Z,29.33
2018-07-22T12:42:18.289Z,29.34
2018-07-22T12:43:13.988Z,29.35
2018-07-22T12:44:21.366Z,29.28
2018-07-22T12:45:30.590Z,29.20
2018-07-22T12:46:35.862Z,29.25
2018-07-22T12:47:41.775Z,29.19
2018-07-22T12:48:45.561Z,29.19
2018-07-22T12:50:54.589Z,29.31
2018-07-22T12:55:14.375Z,29.59
2018-07-22T12:57:26.622Z,29.71
2018-07-22T12:58:35.597Z,29.84
2018-07-22T13:00:38.780Z,29.77
2018-07-22T13:01:47.891Z,29.79
2018-07-22T13:03:57.891Z,29.84
2018-07-22T13:05:05.227Z,29.89
2018-07-22T13:06:12.300Z,29.90
2018-07-22T13:07:19.679Z,29.90
2018-07-22T13:08:26.343Z,29.94
2018-07-22T13:09:23.998Z,29.84
2018-07-22T13:10:34.856Z,29.94
2018-07-22T13:11:36.807Z,29.81
2018-07-22T13:12:54.325Z,29.74
2018-07-22T13:13:52.387Z,29.74
2018-07-22T13:14:59.153Z,29.66
2018-07-22T13:15:59.261Z,29.71
2018-07-22T13:17:06.333Z,29.87
2018-07-22T13:18:12.075Z,29.82
2018-07-22T13:19:25.525Z,29.78
2018-07-22T13:20:32.366Z,29.82
2018-07-22T13:21:34.215Z,29.79
2018-07-22T13:22:34.639Z,29.82
2018-07-22T13:25:50.627Z,29.77
2018-07-22T13:27:04.158Z,29.82
2018-07-22T13:31:21.891Z,29.78
2018-07-22T13:33:36.450Z,29.68
2018-07-22T13:34:34.718Z,29.77
2018-07-22T13:35:39.840Z,29.77
2018-07-22T13:36:53.981Z,29.57
2018-07-22T13:37:53.575Z,29.60
2018-07-22T13:39:04.130Z,29.47
2018-07-22T13:40:10.806Z,29.37
2018-07-22T13:41:15.303Z,29.35
2018-07-22T13:42:12.756Z,29.34
2018-07-22T13:43:24.741Z,29.29
2018-07-22T13:44:32.226Z,29.31
2018-07-22T13:45:29.788Z,29.22
2018-07-22T13:46:43.806Z,29.23
2018-07-22T13:47:54.873Z,29.26
2018-07-22T13:48:47.719Z,29.34
2018-07-22T13:49:53.453Z,29.33
2018-07-22T13:51:13.940Z,29.29
2018-07-22T13:52:04.217Z,29.23
2018-07-22T13:53:08.729Z,29.31
2018-07-22T13:54:13.651Z,29.16
2018-07-22T13:55:25.434Z,29.22
2018-07-22T13:58:46.755Z,29.10
2018-07-22T14:00:46.059Z,29.23
2018-07-22T14:01:54.865Z,29.28
2018-07-22T14:02:59.581Z,29.38
2018-07-22T14:04:08.497Z,29.43
2018-07-22T14:06:21.168Z,29.50
2018-07-22T14:07:30.644Z,29.49
2018-07-22T14:08:26.447Z,29.38
2018-07-22T14:09:33.531Z,29.43
2018-07-22T14:10:41.722Z,29.37
2018-07-22T14:11:47.463Z,29.40
2018-07-22T14:14:01.501Z,29.41
2018-07-22T14:15:03.568Z,29.40
2018-07-22T14:17:08.075Z,29.40
2018-07-22T14:18:15.249Z,29.26
2018-07-22T14:19:26.622Z,29.25
2018-07-22T14:20:28.575Z,29.26
2018-07-22T14:21:38.960Z,29.26
2018-07-22T14:22:40.261Z,29.25
2018-07-22T14:23:43.647Z,29.26
2018-07-22T14:24:51.132Z,29.26
2018-07-22T14:25:51.855Z,29.31
2018-07-22T14:27:00.975Z,29.26
2018-07-22T14:28:06.956Z,29.28
2018-07-22T14:29:11.745Z,29.22
2018-07-22T14:30:23.424Z,29.25
2018-07-22T14:32:33.981Z,29.31
2018-07-22T14:33:36.755Z,29.25
2018-07-22T14:35:52.949Z,29.29
2018-07-22T14:36:53.566Z,29.29
2018-07-22T14:38:57.266Z,29.34
2018-07-22T14:40:19.399Z,29.37
2018-07-22T14:41:10.702Z,29.31
2018-07-22T14:42:16.950Z,29.34
2018-07-22T14:43:25.556Z,29.28
2018-07-22T14:44:31.204Z,29.33
2018-07-22T14:46:45.161Z,29.20
2018-07-22T14:47:50.159Z,29.10
2018-07-22T14:48:49.149Z,28.91
2018-07-22T14:52:16.325Z,28.58
2018-07-22T14:53:15.492Z,28.58
2018-07-22T14:54:19.283Z,28.41
2018-07-22T14:55:29.685Z,28.33
2018-07-22T14:56:39.479Z,28.25
2018-07-22T14:57:33.335Z,28.21
2018-07-22T14:58:43.578Z,28.16
2018-07-22T14:59:46.145Z,28.03
2018-07-22T15:00:58.545Z,28.09
2018-07-22T15:01:57.322Z,28.03
2018-07-22T15:03:07.158Z,27.95
2018-07-22T15:05:11.883Z,27.96
2018-07-22T15:07:21.111Z,27.82
2018-07-22T15:08:34.944Z,27.76
2018-07-22T15:09:39.372Z,27.80
2018-07-22T15:10:41.202Z,27.76
2018-07-22T15:11:46.739Z,27.80
2018-07-22T15:12:52.687Z,27.84
2018-07-22T15:14:02.452Z,27.82
2018-07-22T15:14:52.906Z,27.73
2018-07-22T15:16:09.094Z,27.76
2018-07-22T15:18:20.268Z,27.59
2018-07-22T15:20:36.457Z,27.61
2018-07-22T15:21:40.270Z,27.71
2018-07-22T15:22:45.620Z,27.71
2018-07-22T15:26:07.832Z,27.84
2018-07-22T15:27:08.858Z,27.79
2018-07-22T15:28:04.975Z,27.84
2018-07-22T15:30:21.072Z,27.80
2018-07-22T15:31:30.184Z,27.80
2018-07-22T15:32:34.939Z,27.94
2018-07-22T15:33:41.359Z,27.77
2018-07-22T15:34:57.957Z,27.88
2018-07-22T15:35:50.386Z,27.92
2018-07-22T15:36:55.512Z,27.99
2018-07-22T15:38:01.970Z,27.96
2018-07-22T15:39:03.001Z,27.92
2018-07-22T15:40:13.723Z,27.96
2018-07-22T15:41:21.959Z,27.98
2018-07-22T15:45:30.488Z,27.91
2018-07-22T15:46:56.808Z,27.92
2018-07-22T15:47:51.901Z,27.94
2018-07-22T15:48:49.961Z,27.94
2018-07-22T15:50:07.171Z,27.82
2018-07-22T15:51:04.106Z,27.82
2018-07-22T15:52:17.427Z,27.79
2018-07-22T15:53:15.282Z,27.77
2018-07-22T15:57:37.734Z,27.62
2018-07-22T15:58:47.165Z,27.62
2018-07-22T15:59:49.730Z,27.61
2018-07-22T16:00:56.802Z,27.62
2018-07-22T16:02:02.263Z,27.58
2018-07-22T16:03:04.499Z,27.59
2018-07-22T16:04:10.346Z,27.58
2018-07-22T16:05:22.439Z,27.51
2018-07-22T16:06:23.358Z,27.61
2018-07-22T16:07:29.006Z,27.58
2018-07-22T16:08:40.986Z,27.47
2018-07-22T16:09:36.596Z,27.43
2018-07-22T16:10:46.835Z,27.36
2018-07-22T16:11:57.081Z,27.41
2018-07-22T16:12:58.245Z,27.31
2018-07-22T16:13:52.086Z,27.39
2018-07-22T16:16:11.959Z,27.29
2018-07-22T16:18:22.518Z,27.28
2018-07-22T16:19:38.704Z,27.38
2018-07-22T16:21:36.975Z,27.31
2018-07-22T16:22:45.483Z,27.28
2018-07-22T16:23:49.584Z,27.38
2018-07-22T16:25:03.009Z,27.23
2018-07-22T16:26:04.140Z,27.19
2018-07-22T16:27:00.357Z,27.36
2018-07-22T16:28:11.730Z,27.28
2018-07-22T16:29:11.634Z,27.19
2018-07-22T16:30:30.278Z,27.21
2018-07-22T16:31:43.400Z,27.20
2018-07-22T16:33:48.217Z,27.23
2018-07-22T16:34:44.141Z,27.17
2018-07-22T16:35:51.820Z,27.23
2018-07-22T16:36:56.125Z,27.23
2018-07-22T16:38:00.327Z,27.16
2018-07-22T16:39:09.044Z,27.24
2018-07-22T16:40:18.063Z,27.26
2018-07-22T16:42:27.601Z,27.35
2018-07-22T16:43:31.903Z,27.26
2018-07-22T16:44:40.726Z,27.32